sensor_id;sensor_type;location;lat;lon;timestamp;P1;durP1;ratioP1;P2;durP2;ratioP2
40601;SDS011;26310;50.278;19.032;2023-10-09T04:03:06;13.73;;;8.10;;
40601;SDS011;26310;50.278;19.032;2023-10-09T04:08:37;11.80;;;8.23;;
40601;SDS011;26310;50.278;19.032;2023-10-09T04:14:17;13.27;;;7.23;;
40601;SDS011;26310;50.278;19.032;2023-10-09T04:20:03;11.20;;;7.00;;
40601;SDS011;26310;50.278;19.032;2023-10-09T04:26:04;12.00;;;7.03;;
40601;SDS011;26310;50.278;19.032;2023-10-09T04:31:45;10.00;;;6.70;;
40601;SDS011;26310;50.278;19.032;2023-10-09T04:37:21;9.33;;;5.87;;
40601;SDS011;26310;50.278;19.032;2023-10-09T04:43:07;9.67;;;7.07;;
40601;SDS011;26310;50.278;19.032;2023-10-09T04:48:50;11.90;;;6.40;;
40601;SDS011;26310;50.278;19.032;2023-10-09T04:54:22;10.23;;;6.33;;
40601;SDS011;26310;50.278;19.032;2023-10-09T05:00:09;11.80;;;5.60;;
40601;SDS011;26310;50.278;19.032;2023-10-09T05:05:57;11.33;;;6.77;;
40601;SDS011;26310;50.278;19.032;2023-10-09T05:11:50;13.73;;;6.47;;
40601;SDS011;26310;50.278;19.032;2023-10-09T05:17:21;8.83;;;5.43;;
40601;SDS011;26310;50.278;19.032;2023-10-09T05:22:55;9.27;;;5.40;;
40601;SDS011;26310;50.278;19.032;2023-10-09T05:28:37;8.47;;;5.57;;
40601;SDS011;26310;50.278;19.032;2023-10-09T05:34:23;9.30;;;5.83;;
40601;SDS011;26310;50.278;19.032;2023-10-09T05:40:04;9.93;;;5.47;;
40601;SDS011;26310;50.278;19.032;2023-10-09T05:45:48;9.70;;;5.53;;
40601;SDS011;26310;50.278;19.032;2023-10-09T05:51:38;8.67;;;5.87;;
40601;SDS011;26310;50.278;19.032;2023-10-09T05:57:12;9.20;;;5.53;;
40601;SDS011;26310;50.278;19.032;2023-10-09T06:03:21;8.77;;;5.70;;
40601;SDS011;26310;50.278;19.032;2023-10-09T06:09:18;10.27;;;5.50;;
40601;SDS011;26310;50.278;19.032;2023-10-09T06:14:48;7.27;;;5.50;;
40601;SDS011;26310;50.278;19.032;2023-10-09T06:19:51;10.37;;;6.13;;
40601;SDS011;26310;50.278;19.032;2023-10-09T06:25:00;9.93;;;5.97;;
40601;SDS011;26310;50.278;19.032;2023-10-09T06:30:11;9.73;;;5.37;;
40601;SDS011;26310;50.278;19.032;2023-10-09T06:35:26;8.77;;;5.50;;
40601;SDS011;26310;50.278;19.032;2023-10-09T06:40:38;9.83;;;6.30;;
40601;SDS011;26310;50.278;19.032;2023-10-09T06:46:00;10.43;;;5.73;;
40601;SDS011;26310;50.278;19.032;2023-10-09T06:51:21;10.87;;;6.97;;
40601;SDS011;26310;50.278;19.032;2023-10-09T06:56:45;9.30;;;5.40;;
40601;SDS011;26310;50.278;19.032;2023-10-09T07:02:15;7.00;;;5.10;;
40601;SDS011;26310;50.278;19.032;2023-10-09T07:07:27;8.27;;;5.20;;
40601;SDS011;26310;50.278;19.032;2023-10-09T07:12:37;8.50;;;5.43;;
40601;SDS011;26310;50.278;19.032;2023-10-09T07:17:44;7.47;;;4.90;;
40601;SDS011;26310;50.278;19.032;2023-10-09T07:22:47;8.73;;;5.40;;
40601;SDS011;26310;50.278;19.032;2023-10-09T07:27:58;8.17;;;5.30;;
40601;SDS011;26310;50.278;19.032;2023-10-09T07:33:05;6.77;;;3.80;;
40601;SDS011;26310;50.278;19.032;2023-10-09T07:38:17;5.50;;;3.70;;
40601;SDS011;26310;50.278;19.032;2023-10-09T07:43:29;5.27;;;3.57;;
40601;SDS011;26310;50.278;19.032;2023-10-09T07:48:45;5.07;;;3.80;;
40601;SDS011;26310;50.278;19.032;2023-10-09T07:53:54;5.87;;;3.70;;
40601;SDS011;26310;50.278;19.032;2023-10-09T07:58:59;8.37;;;3.90;;
40601;SDS011;26310;50.278;19.032;2023-10-09T08:04:02;6.87;;;4.10;;
40601;SDS011;26310;50.278;19.032;2023-10-09T08:09:15;7.63;;;4.30;;
40601;SDS011;26310;50.278;19.032;2023-10-09T08:14:24;7.03;;;4.13;;
40601;SDS011;26310;50.278;19.032;2023-10-09T08:19:35;4.57;;;3.37;;
40601;SDS011;26310;50.278;19.032;2023-10-09T08:24:53;7.17;;;3.70;;
40601;SDS011;26310;50.278;19.032;2023-10-09T08:30:02;5.90;;;4.20;;
40601;SDS011;26310;50.278;19.032;2023-10-09T08:35:20;6.63;;;4.17;;
40601;SDS011;26310;50.278;19.032;2023-10-09T08:40:32;6.07;;;4.80;;
40601;SDS011;26310;50.278;19.032;2023-10-09T08:45:39;14.20;;;7.47;;
40601;SDS011;26310;50.278;19.032;2023-10-09T08:50:48;6.40;;;4.70;;
40601;SDS011;26310;50.278;19.032;2023-10-09T08:55:51;6.03;;;4.60;;
40601;SDS011;26310;50.278;19.032;2023-10-09T09:00:54;6.07;;;3.67;;
40601;SDS011;26310;50.278;19.032;2023-10-09T09:06:01;5.13;;;3.77;;
40601;SDS011;26310;50.278;19.032;2023-10-09T09:16:14;7.30;;;5.13;;
40601;SDS011;26310;50.278;19.032;2023-10-09T09:21:24;7.37;;;5.30;;
40601;SDS011;26310;50.278;19.032;2023-10-09T09:26:38;10.03;;;6.57;;
40601;SDS011;26310;50.278;19.032;2023-10-09T09:31:53;8.00;;;5.43;;
40601;SDS011;26310;50.278;19.032;2023-10-09T09:36:59;6.77;;;4.83;;
40601;SDS011;26310;50.278;19.032;2023-10-09T09:42:05;6.33;;;3.93;;
40601;SDS011;26310;50.278;19.032;2023-10-09T09:47:16;8.40;;;3.60;;
40601;SDS011;26310;50.278;19.032;2023-10-09T09:52:29;5.07;;;3.97;;
40601;SDS011;26310;50.278;19.032;2023-10-09T09:57:41;7.47;;;4.13;;
40601;SDS011;26310;50.278;19.032;2023-10-09T10:02:47;6.47;;;4.00;;
40601;SDS011;26310;50.278;19.032;2023-10-09T10:07:50;6.40;;;4.07;;
40601;SDS011;26310;50.278;19.032;2023-10-09T10:12:57;5.13;;;3.70;;
40601;SDS011;26310;50.278;19.032;2023-10-09T10:23:16;5.93;;;3.83;;
40601;SDS011;26310;50.278;19.032;2023-10-09T10:28:22;7.13;;;5.10;;
40601;SDS011;26310;50.278;19.032;2023-10-09T10:39:04;6.53;;;4.87;;
40601;SDS011;26310;50.278;19.032;2023-10-09T10:44:28;7.47;;;5.77;;
40601;SDS011;26310;50.278;19.032;2023-10-09T10:49:35;7.30;;;4.83;;
40601;SDS011;26310;50.278;19.032;2023-10-09T10:54:39;7.50;;;5.00;;
40601;SDS011;26310;50.278;19.032;2023-10-09T10:59:41;6.23;;;4.73;;
40601;SDS011;26310;50.278;19.032;2023-10-09T11:04:47;6.13;;;3.50;;
40601;SDS011;26310;50.278;19.032;2023-10-09T11:10:10;4.00;;;3.60;;
40601;SDS011;26310;50.278;19.032;2023-10-09T11:15:29;4.63;;;3.23;;
40601;SDS011;26310;50.278;19.032;2023-10-09T11:20:53;5.20;;;3.83;;
40601;SDS011;26310;50.278;19.032;2023-10-09T11:26:18;7.13;;;4.40;;
40601;SDS011;26310;50.278;19.032;2023-10-09T11:31:30;4.47;;;3.83;;
40601;SDS011;26310;50.278;19.032;2023-10-09T11:36:36;5.03;;;3.97;;
40601;SDS011;26310;50.278;19.032;2023-10-09T11:41:40;6.37;;;3.93;;
40601;SDS011;26310;50.278;19.032;2023-10-09T11:46:57;6.13;;;4.47;;
40601;SDS011;26310;50.278;19.032;2023-10-09T11:52:07;5.67;;;4.17;;
40601;SDS011;26310;50.278;19.032;2023-10-09T11:57:10;6.10;;;4.63;;
40601;SDS011;26310;50.278;19.032;2023-10-09T12:02:13;6.13;;;3.73;;
40601;SDS011;26310;50.278;19.032;2023-10-09T12:07:16;5.00;;;4.13;;
40601;SDS011;26310;50.278;19.032;2023-10-09T12:12:22;4.93;;;4.00;;
40601;SDS011;26310;50.278;19.032;2023-10-09T12:17:28;5.57;;;4.33;;
40601;SDS011;26310;50.278;19.032;2023-10-09T12:22:31;6.00;;;4.30;;
40601;SDS011;26310;50.278;19.032;2023-10-09T12:27:35;4.27;;;3.57;;
40601;SDS011;26310;50.278;19.032;2023-10-09T12:32:37;4.63;;;3.83;;
40601;SDS011;26310;50.278;19.032;2023-10-09T12:37:41;7.43;;;4.43;;
40601;SDS011;26310;50.278;19.032;2023-10-09T12:42:45;5.47;;;4.50;;
40601;SDS011;26310;50.278;19.032;2023-10-09T12:47:50;4.47;;;3.97;;
40601;SDS011;26310;50.278;19.032;2023-10-09T12:52:56;5.43;;;3.93;;
40601;SDS011;26310;50.278;19.032;2023-10-09T12:58:11;4.30;;;3.70;;
40601;SDS011;26310;50.278;19.032;2023-10-09T13:03:17;4.13;;;3.73;;
40601;SDS011;26310;50.278;19.032;2023-10-09T13:08:23;4.70;;;4.07;;
40601;SDS011;26310;50.278;19.032;2023-10-09T13:13:40;7.00;;;4.63;;
40601;SDS011;26310;50.278;19.032;2023-10-09T13:18:45;6.20;;;4.50;;
40601;SDS011;26310;50.278;19.032;2023-10-09T13:23:52;6.00;;;5.40;;
40601;SDS011;26310;50.278;19.032;2023-10-09T13:28:59;8.00;;;6.03;;
40601;SDS011;26310;50.278;19.032;2023-10-09T13:34:05;6.67;;;5.30;;
40601;SDS011;26310;50.278;19.032;2023-10-09T13:39:17;6.77;;;5.30;;
40601;SDS011;26310;50.278;19.032;2023-10-09T13:49:31;13.73;;;8.83;;
40601;SDS011;26310;50.278;19.032;2023-10-09T13:54:35;20.47;;;9.43;;
40601;SDS011;26310;50.278;19.032;2023-10-09T13:59:38;17.73;;;9.03;;
40601;SDS011;26310;50.278;19.032;2023-10-09T14:04:46;10.87;;;7.90;;
40601;SDS011;26310;50.278;19.032;2023-10-09T14:09:54;11.27;;;6.97;;
40601;SDS011;26310;50.278;19.032;2023-10-09T14:14:56;13.13;;;8.50;;
40601;SDS011;26310;50.278;19.032;2023-10-09T14:19:59;12.97;;;8.00;;
40601;SDS011;26310;50.278;19.032;2023-10-09T14:25:24;15.70;;;9.80;;
40601;SDS011;26310;50.278;19.032;2023-10-09T14:30:32;12.77;;;10.13;;
40601;SDS011;26310;50.278;19.032;2023-10-09T14:35:38;10.23;;;8.60;;
40601;SDS011;26310;50.278;19.032;2023-10-09T14:40:42;10.23;;;9.23;;
40601;SDS011;26310;50.278;19.032;2023-10-09T14:45:47;10.00;;;8.40;;
40601;SDS011;26310;50.278;19.032;2023-10-09T14:50:54;11.60;;;9.50;;
40601;SDS011;26310;50.278;19.032;2023-10-09T14:56:07;12.53;;;9.37;;
40601;SDS011;26310;50.278;19.032;2023-10-09T15:01:11;16.27;;;12.23;;
40601;SDS011;26310;50.278;19.032;2023-10-09T15:06:17;17.20;;;13.30;;
40601;SDS011;26310;50.278;19.032;2023-10-09T15:11:24;17.10;;;13.43;;
40601;SDS011;26310;50.278;19.032;2023-10-09T15:16:27;16.50;;;12.93;;
40601;SDS011;26310;50.278;19.032;2023-10-09T15:21:33;19.93;;;15.23;;
40601;SDS011;26310;50.278;19.032;2023-10-09T15:26:36;18.77;;;14.20;;
40601;SDS011;26310;50.278;19.032;2023-10-09T15:31:39;17.20;;;14.23;;
40601;SDS011;26310;50.278;19.032;2023-10-09T15:36:47;19.00;;;14.67;;
40601;SDS011;26310;50.278;19.032;2023-10-09T15:41:50;18.60;;;13.87;;
40601;SDS011;26310;50.278;19.032;2023-10-09T15:46:52;37.23;;;28.97;;
40601;SDS011;26310;50.278;19.032;2023-10-09T15:52:02;30.00;;;21.97;;
40601;SDS011;26310;50.278;19.032;2023-10-09T15:57:05;24.73;;;19.23;;
40601;SDS011;26310;50.278;19.032;2023-10-09T16:02:14;26.70;;;19.43;;
40601;SDS011;26310;50.278;19.032;2023-10-09T16:07:18;24.77;;;18.73;;
40601;SDS011;26310;50.278;19.032;2023-10-09T16:12:22;25.87;;;18.27;;
40601;SDS011;26310;50.278;19.032;2023-10-09T16:17:25;21.80;;;17.40;;
40601;SDS011;26310;50.278;19.032;2023-10-09T16:22:28;20.93;;;16.87;;
40601;SDS011;26310;50.278;19.032;2023-10-09T16:27:30;23.13;;;17.37;;
40601;SDS011;26310;50.278;19.032;2023-10-09T16:32:33;24.80;;;17.17;;
40601;SDS011;26310;50.278;19.032;2023-10-09T16:37:36;22.67;;;18.13;;
40601;SDS011;26310;50.278;19.032;2023-10-09T16:42:42;22.77;;;16.57;;
40601;SDS011;26310;50.278;19.032;2023-10-09T16:47:45;21.73;;;16.43;;
40601;SDS011;26310;50.278;19.032;2023-10-09T16:52:49;23.77;;;17.67;;
40601;SDS011;26310;50.278;19.032;2023-10-09T16:57:52;24.93;;;19.23;;
40601;SDS011;26310;50.278;19.032;2023-10-09T17:02:58;28.20;;;19.93;;
40601;SDS011;26310;50.278;19.032;2023-10-09T17:08:02;32.00;;;22.67;;
40601;SDS011;26310;50.278;19.032;2023-10-09T17:13:11;34.10;;;23.20;;
40601;SDS011;26310;50.278;19.032;2023-10-09T17:18:15;35.97;;;24.77;;
40601;SDS011;26310;50.278;19.032;2023-10-09T17:23:18;33.03;;;23.97;;
40601;SDS011;26310;50.278;19.032;2023-10-09T17:28:21;36.70;;;24.03;;
40601;SDS011;26310;50.278;19.032;2023-10-09T17:33:23;38.57;;;24.70;;
40601;SDS011;26310;50.278;19.032;2023-10-09T17:38:29;38.10;;;25.50;;
40601;SDS011;26310;50.278;19.032;2023-10-09T17:43:32;35.10;;;24.17;;
40601;SDS011;26310;50.278;19.032;2023-10-09T17:48:35;34.97;;;24.20;;
40601;SDS011;26310;50.278;19.032;2023-10-09T17:53:38;36.43;;;24.80;;
40601;SDS011;26310;50.278;19.032;2023-10-09T17:58:41;40.63;;;25.03;;
40601;SDS011;26310;50.278;19.032;2023-10-09T18:03:52;40.37;;;26.40;;
40601;SDS011;26310;50.278;19.032;2023-10-09T18:08:55;41.87;;;26.97;;
40601;SDS011;26310;50.278;19.032;2023-10-09T18:13:58;43.93;;;26.80;;
40601;SDS011;26310;50.278;19.032;2023-10-09T18:19:04;40.73;;;27.27;;
40601;SDS011;26310;50.278;19.032;2023-10-09T18:24:10;41.10;;;24.80;;
40601;SDS011;26310;50.278;19.032;2023-10-09T18:29:16;40.53;;;25.77;;
40601;SDS011;26310;50.278;19.032;2023-10-09T18:34:19;35.73;;;24.73;;
40601;SDS011;26310;50.278;19.032;2023-10-09T18:39:23;41.23;;;25.20;;
40601;SDS011;26310;50.278;19.032;2023-10-09T18:44:26;38.73;;;25.10;;
40601;SDS011;26310;50.278;19.032;2023-10-09T18:49:29;37.77;;;23.67;;
40601;SDS011;26310;50.278;19.032;2023-10-09T18:54:32;39.50;;;25.80;;
40601;SDS011;26310;50.278;19.032;2023-10-09T18:59:38;86.83;;;55.00;;
40601;SDS011;26310;50.278;19.032;2023-10-09T19:04:44;45.33;;;28.67;;
40601;SDS011;26310;50.278;19.032;2023-10-09T19:09:47;45.87;;;26.03;;
40601;SDS011;26310;50.278;19.032;2023-10-09T19:14:50;51.07;;;32.60;;
40601;SDS011;26310;50.278;19.032;2023-10-09T19:19:55;41.37;;;24.63;;
40601;SDS011;26310;50.278;19.032;2023-10-09T19:24:59;44.83;;;26.50;;
40601;SDS011;26310;50.278;19.032;2023-10-09T19:30:02;43.83;;;25.93;;
40601;SDS011;26310;50.278;19.032;2023-10-09T19:35:08;43.00;;;26.43;;
40601;SDS011;26310;50.278;19.032;2023-10-09T19:40:11;44.83;;;27.83;;
40601;SDS011;26310;50.278;19.032;2023-10-09T19:45:14;43.90;;;27.67;;
40601;SDS011;26310;50.278;19.032;2023-10-09T19:50:21;43.40;;;27.17;;
40601;SDS011;26310;50.278;19.032;2023-10-09T19:55:27;49.37;;;29.57;;
40601;SDS011;26310;50.278;19.032;2023-10-09T20:00:30;47.97;;;28.30;;
40601;SDS011;26310;50.278;19.032;2023-10-09T20:05:33;43.23;;;28.40;;
40601;SDS011;26310;50.278;19.032;2023-10-09T20:10:44;44.67;;;27.60;;
40601;SDS011;26310;50.278;19.032;2023-10-09T20:15:57;49.87;;;27.70;;
40601;SDS011;26310;50.278;19.032;2023-10-09T20:21:01;49.27;;;28.20;;
40601;SDS011;26310;50.278;19.032;2023-10-09T20:26:07;44.90;;;25.10;;
40601;SDS011;26310;50.278;19.032;2023-10-09T20:31:17;40.73;;;24.80;;
40601;SDS011;26310;50.278;19.032;2023-10-09T20:36:20;35.83;;;24.70;;
40601;SDS011;26310;50.278;19.032;2023-10-09T20:41:30;38.77;;;25.30;;
40601;SDS011;26310;50.278;19.032;2023-10-09T20:46:36;40.60;;;25.00;;
40601;SDS011;26310;50.278;19.032;2023-10-09T20:51:40;43.40;;;26.67;;
40601;SDS011;26310;50.278;19.032;2023-10-09T20:56:58;40.57;;;26.17;;
40601;SDS011;26310;50.278;19.032;2023-10-09T21:02:02;32.30;;;21.00;;
40601;SDS011;26310;50.278;19.032;2023-10-09T21:07:08;30.97;;;20.83;;
40601;SDS011;26310;50.278;19.032;2023-10-09T21:12:13;31.57;;;21.37;;
40601;SDS011;26310;50.278;19.032;2023-10-09T21:17:17;32.60;;;20.30;;
40601;SDS011;26310;50.278;19.032;2023-10-09T21:22:22;32.30;;;21.37;;
40601;SDS011;26310;50.278;19.032;2023-10-09T21:27:24;31.90;;;21.80;;
40601;SDS011;26310;50.278;19.032;2023-10-09T21:32:27;36.40;;;21.97;;
40601;SDS011;26310;50.278;19.032;2023-10-09T21:37:29;35.17;;;22.47;;
40601;SDS011;26310;50.278;19.032;2023-10-09T21:42:33;32.93;;;22.43;;
40601;SDS011;26310;50.278;19.032;2023-10-09T21:47:36;35.47;;;22.93;;
40601;SDS011;26310;50.278;19.032;2023-10-09T21:52:39;32.00;;;22.37;;
40601;SDS011;26310;50.278;19.032;2023-10-09T21:57:42;34.00;;;22.50;;
40601;SDS011;26310;50.278;19.032;2023-10-09T22:02:45;34.07;;;21.63;;
40601;SDS011;26310;50.278;19.032;2023-10-09T22:07:49;33.17;;;21.50;;
40601;SDS011;26310;50.278;19.032;2023-10-09T22:12:53;32.73;;;22.30;;
40601;SDS011;26310;50.278;19.032;2023-10-09T22:17:56;29.83;;;20.63;;
40601;SDS011;26310;50.278;19.032;2023-10-09T22:22:59;33.53;;;22.50;;
40601;SDS011;26310;50.278;19.032;2023-10-09T22:28:02;34.27;;;22.93;;
40601;SDS011;26310;50.278;19.032;2023-10-09T22:33:11;34.90;;;22.50;;
40601;SDS011;26310;50.278;19.032;2023-10-09T22:38:22;34.83;;;21.80;;
40601;SDS011;26310;50.278;19.032;2023-10-09T22:43:24;33.00;;;21.50;;
40601;SDS011;26310;50.278;19.032;2023-10-09T22:48:27;32.10;;;22.30;;
40601;SDS011;26310;50.278;19.032;2023-10-09T22:53:30;33.03;;;20.93;;
40601;SDS011;26310;50.278;19.032;2023-10-09T22:58:40;27.70;;;20.13;;
